Latest Weather Observations for Fawkner Beacon

IDV60801

Issued at 8:02 pm EDT Saturday 6 February 2016 (issued every 30 minutes, with the page automatically refreshed every 10 minutes)

About weather observations | Map of weather stations | Latest weather observations for VIC | Other Formats
Station Details ID: 086376 Name: FAWKNER BEACON Lat: -37.91 Lon: 144.93 Height: 17.0 m
Data from the previous 72 hours. | See also: Recent months for locations in Victoria
Date/Time
EDT
Temp
°C
App
Temp
°C
Dew
Point
Rel
Hum
%
Delta-T
°C
Wind Press
QNH
hPa
Press
MSL
hPa
Rain
since 9 am
mm
Dir
 
Spd
km/h
Gust
km/h
Spd
kts
Gust
kts
06/08:00pm - - - - - ESE 28 32 15 17 - - -
06/07:30pm - - - - - SE 24 28 13 15 - - -
06/07:00pm - - - - - ESE 26 30 14 16 - - -
06/06:30pm - - - - - ESE 22 24 12 13 - - -
06/06:00pm - - - - - ESE 24 26 13 14 - - -
06/05:30pm - - - - - ESE 19 22 10 12 - - -
06/05:00pm - - - - - ESE 22 24 12 13 - - -
06/04:30pm - - - - - SE 22 24 12 13 - - -
06/04:00pm - - - - - SE 22 24 12 13 - - -
06/03:30pm - - - - - SE 19 24 10 13 - - -
06/03:00pm - - - - - SSE 15 17 8 9 - - -
06/02:30pm - - - - - SSE 17 20 9 11 - - -
06/02:00pm - - - - - SE 19 22 10 12 - - -
06/01:30pm - - - - - SSE 15 20 8 11 - - -
06/01:00pm - - - - - SSE 13 17 7 9 - - -
06/12:30pm - - - - - S 15 17 8 9 - - -
06/12:00pm - - - - - S 9 13 5 7 - - -
06/11:30am - - - - - NW 2 7 1 4 - - -
06/11:00am - - - - - N 9 13 5 7 - - -
06/10:30am - - - - - NNE 13 20 7 11 - - -
06/10:00am - - - - - NNE 11 13 6 7 - - -
06/09:30am - - - - - NNE 19 22 10 12 - - -
06/09:00am - - - - - NNE 9 17 5 9 - - -
06/08:30am - - - - - NE 7 11 4 6 - - -
06/08:00am - - - - - N 11 15 6 8 - - -
06/07:30am - - - - - NNW 17 20 9 11 - - -
06/07:00am - - - - - N 15 20 8 11 - - -
06/06:30am - - - - - N 19 22 10 12 - - -
06/06:00am - - - - - N 17 22 9 12 - - -
06/05:30am - - - - - N 24 28 13 15 - - -
06/05:00am - - - - - NE 13 17 7 9 - - -
06/04:30am - - - - - NE 11 13 6 7 - - -
06/04:00am - - - - - ENE 13 17 7 9 - - -
06/03:30am - - - - - NE 15 17 8 9 - - -
06/03:00am - - - - - ENE 19 22 10 12 - - -
06/02:30am - - - - - ENE 22 24 12 13 - - -
06/02:00am - - - - - E 24 28 13 15 - - -
06/01:30am - - - - - E 26 28 14 15 - - -
06/01:00am - - - - - E 26 30 14 16 - - -
06/12:30am - - - - - E 28 33 15 18 - - -
06/12:00am - - - - - ESE 32 35 17 19 - - -
 
Date/Time
EDT
Temp
°C
App
Temp
°C
Dew
Point
Rel
Hum
%
Delta-T
°C
Wind Press
QNH
hPa
Press
MSL
hPa
Rain
since 9 am
mm
Dir
 
Spd
km/h
Gust
km/h
Spd
kts
Gust
kts
05/11:30pm - - - - - ESE 32 39 17 21 - - -
05/11:00pm - - - - - ESE 35 43 19 23 - - -
05/10:30pm - - - - - ESE 43 52 23 28 - - -
05/10:00pm - - - - - ESE 43 50 23 27 - - -
05/09:30pm - - - - - ESE 39 50 21 27 - - -
05/09:00pm - - - - - ESE 43 48 23 26 - - -
05/08:30pm - - - - - ESE 43 50 23 27 - - -
05/08:00pm - - - - - ESE 39 46 21 25 - - -
05/07:30pm - - - - - ESE 35 43 19 23 - - -
05/07:00pm - - - - - ESE 32 41 17 22 - - -
05/06:30pm - - - - - SE 32 39 17 21 - - -
05/06:00pm - - - - - SE 32 35 17 19 - - -
05/05:30pm - - - - - SE 30 33 16 18 - - -
05/05:00pm - - - - - SE 26 32 14 17 - - -
05/04:30pm - - - - - SE 30 33 16 18 - - -
05/04:00pm - - - - - SSE 28 30 15 16 - - -
05/03:30pm - - - - - SSE 24 28 13 15 - - -
05/03:00pm - - - - - SW 22 24 12 13 - - -
05/02:30pm - - - - - WSW 19 22 10 12 - - -
05/02:00pm - - - - - WSW 17 22 9 12 - - -
05/01:30pm - - - - - WSW 15 17 8 9 - - -
05/01:00pm - - - - - WSW 9 13 5 7 - - -
05/12:30pm - - - - - W 9 13 5 7 - - -
05/12:00pm - - - - - WSW 9 13 5 7 - - -
05/11:30am - - - - - CALM 0 0 0 0 - - -
05/11:00am - - - - - ENE 7 9 4 5 - - -
05/10:30am - - - - - ENE 11 13 6 7 - - -
05/10:00am - - - - - ENE 17 24 9 13 - - -
05/09:30am - - - - - E 26 30 14 16 - - -
05/09:00am - - - - - E 28 32 15 17 - - -
05/08:30am - - - - - E 32 39 17 21 - - -
05/08:00am - - - - - E 30 35 16 19 - - -
05/07:30am - - - - - ESE 32 41 17 22 - - -
05/07:00am - - - - - ESE 32 39 17 21 - - -
05/06:30am - - - - - ESE 30 35 16 19 - - -
05/06:00am - - - - - ESE 28 32 15 17 - - -
05/05:30am - - - - - SE 28 33 15 18 - - -
05/05:00am - - - - - SE 28 35 15 19 - - -
05/04:30am - - - - - SE 28 39 15 21 - - -
05/04:00am - - - - - SE 24 30 13 16 - - -
05/03:30am - - - - - SE 24 32 13 17 - - -
05/03:00am - - - - - SE 22 28 12 15 - - -
05/02:30am - - - - - SSE 26 32 14 17 - - -
05/02:00am - - - - - SSE 26 32 14 17 - - -
05/01:30am - - - - - SSE 26 30 14 16 - - -
05/01:00am - - - - - SSE 24 30 13 16 - - -
05/12:30am - - - - - SSE 24 28 13 15 - - -
05/12:00am - - - - - SSE 24 28 13 15 - - -
 
Date/Time
EDT
Temp
°C
App
Temp
°C
Dew
Point
Rel
Hum
%
Delta-T
°C
Wind Press
QNH
hPa
Press
MSL
hPa
Rain
since 9 am
mm
Dir
 
Spd
km/h
Gust
km/h
Spd
kts
Gust
kts
04/11:30pm - - - - - SSE 26 32 14 17 - - -
04/11:00pm - - - - - SSE 28 32 15 17 - - -
04/10:30pm - - - - - SSE 28 33 15 18 - - -
04/10:00pm - - - - - SSE 28 33 15 18 - - -
04/09:30pm - - - - - SSE 28 33 15 18 - - -
04/09:00pm - - - - - S 28 33 15 18 - - -
04/08:30pm - - - - - S 30 39 16 21 - - -
04/08:00pm - - - - - S 33 41 18 22 - - -
04/07:30pm - - - - - S 35 41 19 22 - - -
04/07:00pm - - - - - SSW 37 44 20 24 - - -
04/06:30pm - - - - - SSW 39 44 21 24 - - -
04/06:00pm - - - - - SSW 39 46 21 25 - - -
04/05:30pm - - - - - SSW 39 44 21 24 - - -
04/05:00pm - - - - - SSW 37 43 20 23 - - -
04/04:30pm - - - - - SSW 35 44 19 24 - - -
04/04:00pm - - - - - S 37 43 20 23 - - -
04/03:30pm - - - - - S 35 43 19 23 - - -
04/03:00pm - - - - - S 37 43 20 23 - - -
04/02:30pm - - - - - S 35 44 19 24 - - -
04/02:00pm - - - - - S 35 43 19 23 - - -
04/01:30pm - - - - - S 35 43 19 23 - - -
04/01:00pm - - - - - S 32 39 17 21 - - -
04/12:30pm - - - - - S 32 41 17 22 - - -
04/12:00pm - - - - - S 28 32 15 17 - - -
04/11:30am - - - - - S 30 39 16 21 - - -
04/11:00am - - - - - S 30 35 16 19 - - -
04/10:30am - - - - - S 30 33 16 18 - - -
04/10:00am - - - - - S 30 39 16 21 - - -
04/09:30am - - - - - SSE 28 32 15 17 - - -
04/09:00am - - - - - S 28 32 15 17 - - -
04/08:30am - - - - - SSE 26 32 14 17 - - -
04/08:00am - - - - - S 26 30 14 16 - - -
04/07:30am - - - - - SSE 24 28 13 15 - - -
04/07:00am - - - - - SSE 22 28 12 15 - - -
04/06:30am - - - - - SSE 28 33 15 18 - - -
04/06:00am - - - - - SSE 26 33 14 18 - - -
04/05:30am - - - - - SSE 26 32 14 17 - - -
04/05:00am - - - - - SSE 32 39 17 21 - - -
04/04:30am - - - - - SSE 30 39 16 21 - - -
04/04:00am - - - - - S 33 43 18 23 - - -
04/03:30am - - - - - SSE 35 44 19 24 - - -
04/03:00am - - - - - SSE 32 41 17 22 - - -
04/02:30am - - - - - SSE 35 44 19 24 - - -
04/02:00am - - - - - SSE 35 43 19 23 - - -
04/01:30am - - - - - SSE 39 46 21 25 - - -
04/01:00am - - - - - S 37 46 20 25 - - -
04/12:30am - - - - - S 33 44 18 24 - - -
04/12:00am - - - - - S 37 46 20 25 - - -
 
Date/Time
EDT
Temp
°C
App
Temp
°C
Dew
Point
Rel
Hum
%
Delta-T
°C
Wind Press
QNH
hPa
Press
MSL
hPa
Rain
since 9 am
mm
Dir
 
Spd
km/h
Gust
km/h
Spd
kts
Gust
kts
03/11:30pm - - - - - S 37 46 20 25 - - -
03/11:00pm - - - - - S 33 41 18 22 - - -
03/10:30pm - - - - - S 35 43 19 23 - - -
03/10:00pm - - - - - S 30 35 16 19 - - -
03/09:30pm - - - - - S 32 39 17 21 - - -
03/09:00pm - - - - - SSW 35 43 19 23 - - -
03/08:30pm - - - - - SSW 33 44 18 24 - - -

Other Formats:

Comma delimited format used in spreadsheet applications
http://www.bom.gov.au/fwo/IDV60801/IDV60801.95872.axf

JavaScript Object Notation format (JSON) in row-major order
http://www.bom.gov.au/fwo/IDV60801/IDV60801.95872.json